sensor_id;sensor_type;location;lat;lon;timestamp;temperature;humidity
27922;DHT22;15261;50.356;10.340;2023-04-24T00:00:54;11.00;99.90
27922;DHT22;15261;50.356;10.340;2023-04-24T00:03:22;11.00;99.90
27922;DHT22;15261;50.356;10.340;2023-04-24T00:05:48;10.90;99.90
27922;DHT22;15261;50.356;10.340;2023-04-24T00:08:13;10.90;99.90
27922;DHT22;15261;50.356;10.340;2023-04-24T00:10:39;10.90;99.90
27922;DHT22;15261;50.356;10.340;2023-04-24T00:13:04;10.90;99.90
27922;DHT22;15261;50.356;10.340;2023-04-24T00:15:30;10.90;99.90
27922;DHT22;15261;50.356;10.340;2023-04-24T00:17:56;10.90;99.90
27922;DHT22;15261;50.356;10.340;2023-04-24T00:20:21;10.90;99.90
27922;DHT22;15261;50.356;10.340;2023-04-24T00:22:47;11.00;99.90
27922;DHT22;15261;50.356;10.340;2023-04-24T00:25:13;11.00;99.90
27922;DHT22;15261;50.356;10.340;2023-04-24T00:27:39;11.00;99.90
27922;DHT22;15261;50.356;10.340;2023-04-24T00:30:05;11.10;99.90
27922;DHT22;15261;50.356;10.340;2023-04-24T00:32:31;11.00;99.90
27922;DHT22;15261;50.356;10.340;2023-04-24T00:34:56;11.10;99.90
27922;DHT22;15261;50.356;10.340;2023-04-24T00:37:22;11.10;99.90
27922;DHT22;15261;50.356;10.340;2023-04-24T00:39:47;11.10;99.90
27922;DHT22;15261;50.356;10.340;2023-04-24T00:42:13;11.10;99.90
27922;DHT22;15261;50.356;10.340;2023-04-24T00:44:39;11.10;99.90
27922;DHT22;15261;50.356;10.340;2023-04-24T00:47:05;11.00;99.90
27922;DHT22;15261;50.356;10.340;2023-04-24T00:49:30;11.00;99.90
27922;DHT22;15261;50.356;10.340;2023-04-24T00:51:56;10.90;99.90
27922;DHT22;15261;50.356;10.340;2023-04-24T00:54:22;10.90;99.90
27922;DHT22;15261;50.356;10.340;2023-04-24T00:56:48;10.80;99.90
27922;DHT22;15261;50.356;10.340;2023-04-24T00:59:16;10.80;99.90
27922;DHT22;15261;50.356;10.340;2023-04-24T01:24:00;10.60;99.90
27922;DHT22;15261;50.356;10.340;2023-04-24T01:26:26;10.60;99.90
27922;DHT22;15261;50.356;10.340;2023-04-24T01:28:52;10.60;99.90
27922;DHT22;15261;50.356;10.340;2023-04-24T01:31:18;10.60;99.90
27922;DHT22;15261;50.356;10.340;2023-04-24T01:33:44;10.60;99.90
27922;DHT22;15261;50.356;10.340;2023-04-24T01:36:13;10.60;99.90
27922;DHT22;15261;50.356;10.340;2023-04-24T01:38:39;10.60;99.90
27922;DHT22;15261;50.356;10.340;2023-04-24T01:41:05;10.50;99.90
27922;DHT22;15261;50.356;10.340;2023-04-24T01:43:31;10.50;99.90
27922;DHT22;15261;50.356;10.340;2023-04-24T01:45:57;10.50;99.90
27922;DHT22;15261;50.356;10.340;2023-04-24T01:48:23;10.50;99.90
27922;DHT22;15261;50.356;10.340;2023-04-24T01:50:49;10.50;99.90
27922;DHT22;15261;50.356;10.340;2023-04-24T01:53:14;10.50;99.90
27922;DHT22;15261;50.356;10.340;2023-04-24T01:55:40;10.50;99.90
27922;DHT22;15261;50.356;10.340;2023-04-24T01:58:06;10.40;99.90
27922;DHT22;15261;50.356;10.340;2023-04-24T02:00:32;10.40;99.90
27922;DHT22;15261;50.356;10.340;2023-04-24T02:02:58;10.30;99.90
27922;DHT22;15261;50.356;10.340;2023-04-24T02:05:24;10.30;99.90
27922;DHT22;15261;50.356;10.340;2023-04-24T02:07:49;10.20;99.90
27922;DHT22;15261;50.356;10.340;2023-04-24T02:10:15;10.20;99.90
27922;DHT22;15261;50.356;10.340;2023-04-24T02:12:41;10.20;99.90
27922;DHT22;15261;50.356;10.340;2023-04-24T02:15:08;10.20;99.90
27922;DHT22;15261;50.356;10.340;2023-04-24T02:17:34;10.30;99.90
27922;DHT22;15261;50.356;10.340;2023-04-24T02:20:00;10.20;99.90
27922;DHT22;15261;50.356;10.340;2023-04-24T02:22:26;10.20;99.90
27922;DHT22;15261;50.356;10.340;2023-04-24T02:24:51;10.20;99.90
27922;DHT22;15261;50.356;10.340;2023-04-24T02:27:17;10.20;99.90
27922;DHT22;15261;50.356;10.340;2023-04-24T02:29:42;10.30;99.90
27922;DHT22;15261;50.356;10.340;2023-04-24T02:32:08;10.30;99.90
27922;DHT22;15261;50.356;10.340;2023-04-24T02:34:37;10.30;99.90
27922;DHT22;15261;50.356;10.340;2023-04-24T02:37:03;10.30;99.90
27922;DHT22;15261;50.356;10.340;2023-04-24T02:39:29;10.40;99.90
27922;DHT22;15261;50.356;10.340;2023-04-24T02:41:54;10.40;99.90
27922;DHT22;15261;50.356;10.340;2023-04-24T02:44:20;10.50;99.90
27922;DHT22;15261;50.356;10.340;2023-04-24T02:46:47;10.60;99.90
27922;DHT22;15261;50.356;10.340;2023-04-24T02:49:13;10.70;99.90
27922;DHT22;15261;50.356;10.340;2023-04-24T02:51:39;10.70;99.90
27922;DHT22;15261;50.356;10.340;2023-04-24T02:54:07;10.70;99.90
27922;DHT22;15261;50.356;10.340;2023-04-24T02:56:34;10.70;99.90
27922;DHT22;15261;50.356;10.340;2023-04-24T02:59:00;10.70;99.90
27922;DHT22;15261;50.356;10.340;2023-04-24T03:01:25;10.60;99.90
27922;DHT22;15261;50.356;10.340;2023-04-24T03:03:51;10.60;99.90
27922;DHT22;15261;50.356;10.340;2023-04-24T03:06:16;10.60;99.90
27922;DHT22;15261;50.356;10.340;2023-04-24T03:08:42;10.50;99.90
27922;DHT22;15261;50.356;10.340;2023-04-24T03:11:08;10.50;99.90
27922;DHT22;15261;50.356;10.340;2023-04-24T03:13:33;10.50;99.90
27922;DHT22;15261;50.356;10.340;2023-04-24T03:15:59;10.50;99.90
27922;DHT22;15261;50.356;10.340;2023-04-24T03:18:25;10.50;99.90
27922;DHT22;15261;50.356;10.340;2023-04-24T03:20:51;10.40;99.90
27922;DHT22;15261;50.356;10.340;2023-04-24T03:23:17;10.40;99.90
27922;DHT22;15261;50.356;10.340;2023-04-24T03:25:43;10.30;99.90
27922;DHT22;15261;50.356;10.340;2023-04-24T03:28:08;10.30;99.90
27922;DHT22;15261;50.356;10.340;2023-04-24T03:30:34;10.20;99.90
27922;DHT22;15261;50.356;10.340;2023-04-24T03:33:00;10.20;99.90
27922;DHT22;15261;50.356;10.340;2023-04-24T03:35:26;10.20;99.90
27922;DHT22;15261;50.356;10.340;2023-04-24T03:37:52;10.20;99.90
27922;DHT22;15261;50.356;10.340;2023-04-24T03:40:18;10.20;99.90
27922;DHT22;15261;50.356;10.340;2023-04-24T03:42:44;10.10;99.90
27922;DHT22;15261;50.356;10.340;2023-04-24T03:45:09;10.20;99.90
27922;DHT22;15261;50.356;10.340;2023-04-24T03:47:35;10.10;99.90
27922;DHT22;15261;50.356;10.340;2023-04-24T03:50:01;10.10;99.90
27922;DHT22;15261;50.356;10.340;2023-04-24T03:52:27;10.10;99.90
27922;DHT22;15261;50.356;10.340;2023-04-24T03:54:53;10.10;99.90
27922;DHT22;15261;50.356;10.340;2023-04-24T03:57:19;10.10;99.90
27922;DHT22;15261;50.356;10.340;2023-04-24T03:59:45;10.10;99.90
27922;DHT22;15261;50.356;10.340;2023-04-24T04:02:11;10.10;99.90
27922;DHT22;15261;50.356;10.340;2023-04-24T04:04:37;10.10;99.90
27922;DHT22;15261;50.356;10.340;2023-04-24T04:07:02;10.00;99.90
27922;DHT22;15261;50.356;10.340;2023-04-24T04:09:28;10.00;99.90
27922;DHT22;15261;50.356;10.340;2023-04-24T04:11:54;10.00;99.90
27922;DHT22;15261;50.356;10.340;2023-04-24T04:14:21;10.00;99.90
27922;DHT22;15261;50.356;10.340;2023-04-24T04:16:47;10.00;99.90
27922;DHT22;15261;50.356;10.340;2023-04-24T04:19:13;9.90;99.90
27922;DHT22;15261;50.356;10.340;2023-04-24T04:21:38;9.90;99.90
27922;DHT22;15261;50.356;10.340;2023-04-24T04:24:04;9.90;99.90
27922;DHT22;15261;50.356;10.340;2023-04-24T04:26:31;9.90;99.90
27922;DHT22;15261;50.356;10.340;2023-04-24T04:28:58;9.90;99.90
27922;DHT22;15261;50.356;10.340;2023-04-24T04:31:25;9.80;99.90
27922;DHT22;15261;50.356;10.340;2023-04-24T04:33:51;9.80;99.90
27922;DHT22;15261;50.356;10.340;2023-04-24T04:36:17;9.90;99.90
27922;DHT22;15261;50.356;10.340;2023-04-24T04:38:43;9.90;99.90
27922;DHT22;15261;50.356;10.340;2023-04-24T04:41:10;10.00;99.90
27922;DHT22;15261;50.356;10.340;2023-04-24T04:43:38;10.00;99.90
27922;DHT22;15261;50.356;10.340;2023-04-24T04:46:05;10.10;99.90
27922;DHT22;15261;50.356;10.340;2023-04-24T04:48:33;10.10;99.90
27922;DHT22;15261;50.356;10.340;2023-04-24T04:50:59;10.10;99.90
27922;DHT22;15261;50.356;10.340;2023-04-24T04:53:24;10.20;99.90
27922;DHT22;15261;50.356;10.340;2023-04-24T04:55:51;10.20;99.90
27922;DHT22;15261;50.356;10.340;2023-04-24T04:58:16;10.20;99.90
27922;DHT22;15261;50.356;10.340;2023-04-24T05:00:42;10.30;99.90
27922;DHT22;15261;50.356;10.340;2023-04-24T05:03:08;10.30;99.90
27922;DHT22;15261;50.356;10.340;2023-04-24T05:05:33;10.40;99.90
27922;DHT22;15261;50.356;10.340;2023-04-24T05:07:59;10.50;99.90
27922;DHT22;15261;50.356;10.340;2023-04-24T05:10:26;10.60;99.90
27922;DHT22;15261;50.356;10.340;2023-04-24T05:12:53;10.70;99.90
27922;DHT22;15261;50.356;10.340;2023-04-24T05:15:19;10.80;99.90
27922;DHT22;15261;50.356;10.340;2023-04-24T05:17:45;10.90;99.90
27922;DHT22;15261;50.356;10.340;2023-04-24T05:20:10;11.00;99.90
27922;DHT22;15261;50.356;10.340;2023-04-24T05:22:36;10.90;99.90
27922;DHT22;15261;50.356;10.340;2023-04-24T05:25:02;11.00;99.90
27922;DHT22;15261;50.356;10.340;2023-04-24T05:27:28;11.10;99.90
27922;DHT22;15261;50.356;10.340;2023-04-24T05:29:54;11.10;99.90
27922;DHT22;15261;50.356;10.340;2023-04-24T05:32:19;11.10;99.90
27922;DHT22;15261;50.356;10.340;2023-04-24T05:34:45;11.20;99.90
27922;DHT22;15261;50.356;10.340;2023-04-24T05:37:10;11.20;99.90
27922;DHT22;15261;50.356;10.340;2023-04-24T05:39:36;11.20;99.90
27922;DHT22;15261;50.356;10.340;2023-04-24T05:42:02;11.20;99.90
27922;DHT22;15261;50.356;10.340;2023-04-24T05:44:28;11.10;99.90
27922;DHT22;15261;50.356;10.340;2023-04-24T05:46:54;11.10;99.90
27922;DHT22;15261;50.356;10.340;2023-04-24T05:49:21;11.20;99.90
27922;DHT22;15261;50.356;10.340;2023-04-24T05:51:47;11.20;99.90
27922;DHT22;15261;50.356;10.340;2023-04-24T05:54:12;11.30;99.90
27922;DHT22;15261;50.356;10.340;2023-04-24T05:56:38;11.40;99.90
27922;DHT22;15261;50.356;10.340;2023-04-24T05:59:04;11.50;99.90
27922;DHT22;15261;50.356;10.340;2023-04-24T06:01:30;11.60;99.90
27922;DHT22;15261;50.356;10.340;2023-04-24T06:03:57;11.90;99.90
27922;DHT22;15261;50.356;10.340;2023-04-24T06:06:23;12.00;99.90
27922;DHT22;15261;50.356;10.340;2023-04-24T06:08:49;11.90;99.90
27922;DHT22;15261;50.356;10.340;2023-04-24T06:11:15;11.70;99.90
27922;DHT22;15261;50.356;10.340;2023-04-24T06:13:41;11.70;99.90
27922;DHT22;15261;50.356;10.340;2023-04-24T06:16:06;11.60;99.90
27922;DHT22;15261;50.356;10.340;2023-04-24T06:18:32;11.40;99.90
27922;DHT22;15261;50.356;10.340;2023-04-24T06:20:58;11.40;99.90
27922;DHT22;15261;50.356;10.340;2023-04-24T06:23:23;11.40;99.90
27922;DHT22;15261;50.356;10.340;2023-04-24T06:25:49;11.60;99.90
27922;DHT22;15261;50.356;10.340;2023-04-24T06:28:15;11.90;99.90
27922;DHT22;15261;50.356;10.340;2023-04-24T06:30:40;12.20;99.90
27922;DHT22;15261;50.356;10.340;2023-04-24T06:33:06;12.30;99.90
27922;DHT22;15261;50.356;10.340;2023-04-24T06:35:32;12.20;99.90
27922;DHT22;15261;50.356;10.340;2023-04-24T06:37:57;12.20;99.90
27922;DHT22;15261;50.356;10.340;2023-04-24T06:40:23;12.20;99.90
27922;DHT22;15261;50.356;10.340;2023-04-24T06:42:49;12.30;99.90
27922;DHT22;15261;50.356;10.340;2023-04-24T06:45:15;12.10;99.90
27922;DHT22;15261;50.356;10.340;2023-04-24T06:47:41;12.10;99.90
27922;DHT22;15261;50.356;10.340;2023-04-24T06:50:07;12.10;99.90
27922;DHT22;15261;50.356;10.340;2023-04-24T06:52:32;12.10;99.90
27922;DHT22;15261;50.356;10.340;2023-04-24T06:55:04;12.20;99.90
27922;DHT22;15261;50.356;10.340;2023-04-24T06:57:30;12.00;99.90
27922;DHT22;15261;50.356;10.340;2023-04-24T06:59:56;12.00;99.90
27922;DHT22;15261;50.356;10.340;2023-04-24T07:02:22;12.10;99.90
27922;DHT22;15261;50.356;10.340;2023-04-24T07:04:48;12.20;99.90
27922;DHT22;15261;50.356;10.340;2023-04-24T07:07:14;12.30;99.90
27922;DHT22;15261;50.356;10.340;2023-04-24T07:09:40;12.40;99.90
27922;DHT22;15261;50.356;10.340;2023-04-24T07:12:09;12.60;99.90
27922;DHT22;15261;50.356;10.340;2023-04-24T07:14:38;12.70;99.90
27922;DHT22;15261;50.356;10.340;2023-04-24T07:17:05;12.80;99.90
27922;DHT22;15261;50.356;10.340;2023-04-24T07:19:33;12.80;99.90
27922;DHT22;15261;50.356;10.340;2023-04-24T07:21:58;13.00;99.90
27922;DHT22;15261;50.356;10.340;2023-04-24T07:24:25;13.40;99.90
27922;DHT22;15261;50.356;10.340;2023-04-24T07:26:51;13.60;99.90
27922;DHT22;15261;50.356;10.340;2023-04-24T07:29:18;13.60;99.60
27922;DHT22;15261;50.356;10.340;2023-04-24T07:31:44;13.40;99.70
27922;DHT22;15261;50.356;10.340;2023-04-24T07:34:09;13.40;99.50
27922;DHT22;15261;50.356;10.340;2023-04-24T07:36:36;13.20;98.50
27922;DHT22;15261;50.356;10.340;2023-04-24T07:39:04;13.20;98.80
27922;DHT22;15261;50.356;10.340;2023-04-24T07:41:29;13.20;99.40
27922;DHT22;15261;50.356;10.340;2023-04-24T07:43:55;13.00;99.40
27922;DHT22;15261;50.356;10.340;2023-04-24T07:46:21;12.90;99.70
27922;DHT22;15261;50.356;10.340;2023-04-24T07:48:46;13.10;99.60
27922;DHT22;15261;50.356;10.340;2023-04-24T07:51:15;13.20;99.40
27922;DHT22;15261;50.356;10.340;2023-04-24T07:53:41;13.30;99.10
27922;DHT22;15261;50.356;10.340;2023-04-24T07:56:07;13.20;98.60
27922;DHT22;15261;50.356;10.340;2023-04-24T07:58:33;12.80;96.90
27922;DHT22;15261;50.356;10.340;2023-04-24T08:00:58;12.80;98.20
27922;DHT22;15261;50.356;10.340;2023-04-24T08:03:24;12.80;97.60
27922;DHT22;15261;50.356;10.340;2023-04-24T08:05:50;12.80;97.10
27922;DHT22;15261;50.356;10.340;2023-04-24T08:08:16;13.10;96.90
27922;DHT22;15261;50.356;10.340;2023-04-24T08:10:42;13.30;97.40
27922;DHT22;15261;50.356;10.340;2023-04-24T08:13:08;13.40;96.20
27922;DHT22;15261;50.356;10.340;2023-04-24T08:15:33;13.40;95.10
27922;DHT22;15261;50.356;10.340;2023-04-24T08:17:59;13.30;95.40
27922;DHT22;15261;50.356;10.340;2023-04-24T08:20:25;13.40;95.20
27922;DHT22;15261;50.356;10.340;2023-04-24T08:22:50;13.40;95.10
27922;DHT22;15261;50.356;10.340;2023-04-24T08:25:18;13.30;94.60
27922;DHT22;15261;50.356;10.340;2023-04-24T08:27:44;13.30;93.70
27922;DHT22;15261;50.356;10.340;2023-04-24T08:30:10;13.40;93.40
27922;DHT22;15261;50.356;10.340;2023-04-24T08:32:36;13.40;93.30
27922;DHT22;15261;50.356;10.340;2023-04-24T08:35:02;13.40;93.10
27922;DHT22;15261;50.356;10.340;2023-04-24T08:37:28;13.10;92.70
27922;DHT22;15261;50.356;10.340;2023-04-24T08:39:54;13.10;92.90
27922;DHT22;15261;50.356;10.340;2023-04-24T08:42:21;13.40;93.70
27922;DHT22;15261;50.356;10.340;2023-04-24T08:44:49;13.60;92.60
27922;DHT22;15261;50.356;10.340;2023-04-24T08:47:15;13.60;92.20
27922;DHT22;15261;50.356;10.340;2023-04-24T08:49:41;13.60;92.30
27922;DHT22;15261;50.356;10.340;2023-04-24T08:52:08;13.90;91.90
27922;DHT22;15261;50.356;10.340;2023-04-24T08:54:36;13.90;92.00
27922;DHT22;15261;50.356;10.340;2023-04-24T08:57:04;14.00;91.50
27922;DHT22;15261;50.356;10.340;2023-04-24T08:59:30;14.20;91.10
27922;DHT22;15261;50.356;10.340;2023-04-24T09:01:57;14.40;91.20
27922;DHT22;15261;50.356;10.340;2023-04-24T09:04:24;14.30;92.00
27922;DHT22;15261;50.356;10.340;2023-04-24T09:06:51;14.00;88.50
27922;DHT22;15261;50.356;10.340;2023-04-24T09:09:17;13.80;88.50
27922;DHT22;15261;50.356;10.340;2023-04-24T09:11:44;13.70;89.50
27922;DHT22;15261;50.356;10.340;2023-04-24T09:14:10;13.80;90.50
27922;DHT22;15261;50.356;10.340;2023-04-24T09:16:36;13.90;90.50
27922;DHT22;15261;50.356;10.340;2023-04-24T09:19:02;13.90;90.20
27922;DHT22;15261;50.356;10.340;2023-04-24T09:21:33;13.70;88.40
27922;DHT22;15261;50.356;10.340;2023-04-24T09:24:00;13.60;89.70
27922;DHT22;15261;50.356;10.340;2023-04-24T09:26:30;13.40;89.50
27922;DHT22;15261;50.356;10.340;2023-04-24T09:28:57;13.20;90.10
27922;DHT22;15261;50.356;10.340;2023-04-24T09:31:23;13.30;90.90
27922;DHT22;15261;50.356;10.340;2023-04-24T09:33:58;13.50;90.60
27922;DHT22;15261;50.356;10.340;2023-04-24T09:36:35;13.70;89.70
27922;DHT22;15261;50.356;10.340;2023-04-24T09:39:08;13.80;90.00
27922;DHT22;15261;50.356;10.340;2023-04-24T09:41:52;14.10;88.90
27922;DHT22;15261;50.356;10.340;2023-04-24T09:44:24;14.30;87.40
27922;DHT22;15261;50.356;10.340;2023-04-24T09:46:58;14.30;88.10
27922;DHT22;15261;50.356;10.340;2023-04-24T09:49:28;14.60;89.10
27922;DHT22;15261;50.356;10.340;2023-04-24T09:52:08;14.90;87.30
27922;DHT22;15261;50.356;10.340;2023-04-24T09:54:34;15.00;86.10
27922;DHT22;15261;50.356;10.340;2023-04-24T09:57:02;15.20;86.50
27922;DHT22;15261;50.356;10.340;2023-04-24T09:59:27;15.20;83.70
27922;DHT22;15261;50.356;10.340;2023-04-24T10:01:54;15.40;87.80
27922;DHT22;15261;50.356;10.340;2023-04-24T10:04:25;15.30;85.10
27922;DHT22;15261;50.356;10.340;2023-04-24T10:06:53;14.90;85.30
27922;DHT22;15261;50.356;10.340;2023-04-24T10:09:21;15.00;83.60
27922;DHT22;15261;50.356;10.340;2023-04-24T10:11:49;15.00;84.60
27922;DHT22;15261;50.356;10.340;2023-04-24T10:14:17;15.00;83.30
27922;DHT22;15261;50.356;10.340;2023-04-24T10:16:44;15.00;83.30
27922;DHT22;15261;50.356;10.340;2023-04-24T10:19:12;15.20;83.20
27922;DHT22;15261;50.356;10.340;2023-04-24T10:21:40;15.30;82.80
27922;DHT22;15261;50.356;10.340;2023-04-24T10:24:08;15.80;82.70
27922;DHT22;15261;50.356;10.340;2023-04-24T10:26:35;16.10;83.10
27922;DHT22;15261;50.356;10.340;2023-04-24T10:29:01;16.30;80.70
27922;DHT22;15261;50.356;10.340;2023-04-24T10:31:31;15.90;78.90
27922;DHT22;15261;50.356;10.340;2023-04-24T10:33:58;15.80;81.10
27922;DHT22;15261;50.356;10.340;2023-04-24T10:36:25;15.60;81.70
27922;DHT22;15261;50.356;10.340;2023-04-24T10:38:54;15.50;82.10
27922;DHT22;15261;50.356;10.340;2023-04-24T10:41:21;15.20;80.80
27922;DHT22;15261;50.356;10.340;2023-04-24T10:44:07;14.80;81.80
27922;DHT22;15261;50.356;10.340;2023-04-24T10:46:32;14.50;81.30
27922;DHT22;15261;50.356;10.340;2023-04-24T10:48:58;14.30;83.70
27922;DHT22;15261;50.356;10.340;2023-04-24T10:51:26;14.10;82.90
27922;DHT22;15261;50.356;10.340;2023-04-24T10:54:49;13.80;84.10
27922;DHT22;15261;50.356;10.340;2023-04-24T10:59:48;13.20;87.80
27922;DHT22;15261;50.356;10.340;2023-04-24T11:02:15;13.00;89.00
27922;DHT22;15261;50.356;10.340;2023-04-24T11:04:41;12.80;88.00
27922;DHT22;15261;50.356;10.340;2023-04-24T11:07:09;12.70;89.80
27922;DHT22;15261;50.356;10.340;2023-04-24T11:09:35;12.70;90.10
27922;DHT22;15261;50.356;10.340;2023-04-24T11:12:11;12.80;90.70
27922;DHT22;15261;50.356;10.340;2023-04-24T11:14:59;13.10;90.80
27922;DHT22;15261;50.356;10.340;2023-04-24T11:17:33;13.30;90.00
27922;DHT22;15261;50.356;10.340;2023-04-24T11:20:10;13.30;88.80
27922;DHT22;15261;50.356;10.340;2023-04-24T11:22:40;13.40;89.70
27922;DHT22;15261;50.356;10.340;2023-04-24T11:25:06;13.40;89.80
27922;DHT22;15261;50.356;10.340;2023-04-24T11:30:04;13.10;90.40
27922;DHT22;15261;50.356;10.340;2023-04-24T11:35:18;12.90;90.40
27922;DHT22;15261;50.356;10.340;2023-04-24T11:37:46;12.70;90.30
27922;DHT22;15261;50.356;10.340;2023-04-24T11:40:13;12.60;90.60
27922;DHT22;15261;50.356;10.340;2023-04-24T11:42:49;12.70;91.10
27922;DHT22;15261;50.356;10.340;2023-04-24T11:45:21;12.80;90.10
27922;DHT22;15261;50.356;10.340;2023-04-24T11:47:47;13.10;90.10
27922;DHT22;15261;50.356;10.340;2023-04-24T11:50:15;13.70;90.00
27922;DHT22;15261;50.356;10.340;2023-04-24T11:52:43;14.30;87.90
27922;DHT22;15261;50.356;10.340;2023-04-24T11:55:29;14.70;87.10
27922;DHT22;15261;50.356;10.340;2023-04-24T11:57:57;15.00;86.30
27922;DHT22;15261;50.356;10.340;2023-04-24T12:00:25;15.10;85.80
27922;DHT22;15261;50.356;10.340;2023-04-24T12:03:02;15.40;85.50
27922;DHT22;15261;50.356;10.340;2023-04-24T12:05:29;15.80;83.80
27922;DHT22;15261;50.356;10.340;2023-04-24T12:07:56;15.80;83.20
27922;DHT22;15261;50.356;10.340;2023-04-24T12:10:28;16.00;81.90
27922;DHT22;15261;50.356;10.340;2023-04-24T12:12:55;16.00;81.90
27922;DHT22;15261;50.356;10.340;2023-04-24T12:15:22;16.00;82.90
27922;DHT22;15261;50.356;10.340;2023-04-24T12:17:49;16.00;81.70
27922;DHT22;15261;50.356;10.340;2023-04-24T12:20:15;16.20;79.90
27922;DHT22;15261;50.356;10.340;2023-04-24T12:22:45;16.10;81.10
27922;DHT22;15261;50.356;10.340;2023-04-24T12:25:11;15.80;80.90
27922;DHT22;15261;50.356;10.340;2023-04-24T12:27:37;15.60;81.10
27922;DHT22;15261;50.356;10.340;2023-04-24T12:30:05;15.30;81.40
27922;DHT22;15261;50.356;10.340;2023-04-24T12:32:31;15.00;82.20
27922;DHT22;15261;50.356;10.340;2023-04-24T12:34:57;14.90;84.90
27922;DHT22;15261;50.356;10.340;2023-04-24T12:37:24;14.60;85.30
27922;DHT22;15261;50.356;10.340;2023-04-24T12:40:09;14.30;85.90
27922;DHT22;15261;50.356;10.340;2023-04-24T12:42:41;14.30;87.40
27922;DHT22;15261;50.356;10.340;2023-04-24T12:45:07;14.30;87.20
27922;DHT22;15261;50.356;10.340;2023-04-24T12:47:34;14.30;89.50
27922;DHT22;15261;50.356;10.340;2023-04-24T12:50:00;14.20;90.70
27922;DHT22;15261;50.356;10.340;2023-04-24T12:52:28;14.10;90.70
27922;DHT22;15261;50.356;10.340;2023-04-24T12:54:56;14.20;90.50
27922;DHT22;15261;50.356;10.340;2023-04-24T12:57:23;14.10;89.60
27922;DHT22;15261;50.356;10.340;2023-04-24T12:59:49;14.20;90.20
27922;DHT22;15261;50.356;10.340;2023-04-24T13:02:16;14.20;90.30
27922;DHT22;15261;50.356;10.340;2023-04-24T13:04:46;14.50;90.30
27922;DHT22;15261;50.356;10.340;2023-04-24T13:07:16;14.70;89.40
27922;DHT22;15261;50.356;10.340;2023-04-24T13:09:42;14.70;87.80
27922;DHT22;15261;50.356;10.340;2023-04-24T13:12:09;14.60;87.60
27922;DHT22;15261;50.356;10.340;2023-04-24T13:14:35;14.60;89.10
27922;DHT22;15261;50.356;10.340;2023-04-24T13:17:01;14.30;89.80
27922;DHT22;15261;50.356;10.340;2023-04-24T13:19:28;14.30;88.50
27922;DHT22;15261;50.356;10.340;2023-04-24T13:21:55;14.10;88.60
27922;DHT22;15261;50.356;10.340;2023-04-24T13:24:22;13.80;89.60
27922;DHT22;15261;50.356;10.340;2023-04-24T13:26:50;13.50;90.80
27922;DHT22;15261;50.356;10.340;2023-04-24T13:29:16;13.20;93.20
27922;DHT22;15261;50.356;10.340;2023-04-24T13:31:42;12.60;95.80
27922;DHT22;15261;50.356;10.340;2023-04-24T13:34:08;12.40;95.50
27922;DHT22;15261;50.356;10.340;2023-04-24T13:36:33;12.30;95.80
27922;DHT22;15261;50.356;10.340;2023-04-24T13:38:59;12.50;95.80
27922;DHT22;15261;50.356;10.340;2023-04-24T13:41:25;12.60;96.30
27922;DHT22;15261;50.356;10.340;2023-04-24T13:43:50;12.70;96.10
27922;DHT22;15261;50.356;10.340;2023-04-24T13:46:16;12.80;95.40
27922;DHT22;15261;50.356;10.340;2023-04-24T13:48:42;12.80;96.20
27922;DHT22;15261;50.356;10.340;2023-04-24T13:51:07;12.70;95.90
27922;DHT22;15261;50.356;10.340;2023-04-24T13:53:33;12.70;95.60
27922;DHT22;15261;50.356;10.340;2023-04-24T13:56:10;12.70;96.90
27922;DHT22;15261;50.356;10.340;2023-04-24T13:58:38;12.90;97.40
27922;DHT22;15261;50.356;10.340;2023-04-24T14:01:04;13.10;97.30
27922;DHT22;15261;50.356;10.340;2023-04-24T14:03:33;13.40;96.50
27922;DHT22;15261;50.356;10.340;2023-04-24T14:05:59;13.30;95.50
27922;DHT22;15261;50.356;10.340;2023-04-24T14:08:24;13.30;96.80
27922;DHT22;15261;50.356;10.340;2023-04-24T14:10:54;13.30;96.60
27922;DHT22;15261;50.356;10.340;2023-04-24T14:13:23;13.40;97.30
27922;DHT22;15261;50.356;10.340;2023-04-24T14:15:49;13.60;97.00
27922;DHT22;15261;50.356;10.340;2023-04-24T14:18:34;13.80;96.30
27922;DHT22;15261;50.356;10.340;2023-04-24T14:21:09;13.60;96.30
27922;DHT22;15261;50.356;10.340;2023-04-24T14:23:34;13.50;96.10
27922;DHT22;15261;50.356;10.340;2023-04-24T14:26:00;13.30;96.30
27922;DHT22;15261;50.356;10.340;2023-04-24T14:28:26;13.40;97.10
27922;DHT22;15261;50.356;10.340;2023-04-24T14:30:52;13.40;96.50
27922;DHT22;15261;50.356;10.340;2023-04-24T14:33:18;13.40;96.10
27922;DHT22;15261;50.356;10.340;2023-04-24T14:35:44;13.50;96.20
27922;DHT22;15261;50.356;10.340;2023-04-24T14:38:10;13.60;95.50
27922;DHT22;15261;50.356;10.340;2023-04-24T14:40:36;13.60;96.60
27922;DHT22;15261;50.356;10.340;2023-04-24T14:43:02;13.40;96.30
27922;DHT22;15261;50.356;10.340;2023-04-24T14:45:28;13.10;96.60
27922;DHT22;15261;50.356;10.340;2023-04-24T14:47:54;12.70;97.10
27922;DHT22;15261;50.356;10.340;2023-04-24T14:50:20;12.40;97.60
27922;DHT22;15261;50.356;10.340;2023-04-24T14:52:46;11.90;99.00
27922;DHT22;15261;50.356;10.340;2023-04-24T14:55:12;11.60;99.80
27922;DHT22;15261;50.356;10.340;2023-04-24T14:57:37;11.20;99.30
27922;DHT22;15261;50.356;10.340;2023-04-24T15:00:07;11.00;99.90
27922;DHT22;15261;50.356;10.340;2023-04-24T15:02:35;10.80;99.90
27922;DHT22;15261;50.356;10.340;2023-04-24T15:05:05;10.90;99.90
27922;DHT22;15261;50.356;10.340;2023-04-24T15:07:31;10.90;99.90
27922;DHT22;15261;50.356;10.340;2023-04-24T15:10:00;10.90;99.90
27922;DHT22;15261;50.356;10.340;2023-04-24T15:12:25;11.10;99.90
27922;DHT22;15261;50.356;10.340;2023-04-24T15:14:51;11.20;99.90
27922;DHT22;15261;50.356;10.340;2023-04-24T15:17:16;11.20;99.90
27922;DHT22;15261;50.356;10.340;2023-04-24T15:19:42;11.20;99.90
27922;DHT22;15261;50.356;10.340;2023-04-24T15:22:09;11.20;99.90
27922;DHT22;15261;50.356;10.340;2023-04-24T15:24:52;11.40;99.90
27922;DHT22;15261;50.356;10.340;2023-04-24T15:27:19;11.40;99.90
27922;DHT22;15261;50.356;10.340;2023-04-24T15:29:44;11.60;99.90
27922;DHT22;15261;50.356;10.340;2023-04-24T15:32:10;11.80;99.90
27922;DHT22;15261;50.356;10.340;2023-04-24T15:34:36;12.00;99.90
27922;DHT22;15261;50.356;10.340;2023-04-24T15:37:02;12.10;99.90
27922;DHT22;15261;50.356;10.340;2023-04-24T15:39:30;12.20;99.90
27922;DHT22;15261;50.356;10.340;2023-04-24T15:41:56;12.30;99.90
27922;DHT22;15261;50.356;10.340;2023-04-24T15:44:22;12.20;99.80
27922;DHT22;15261;50.356;10.340;2023-04-24T15:46:48;12.20;99.50